Terminal Aerodrome Forecast
Issued by NWS Mt. Holly, NJ

Home | Current Version | Previous Version | Text Only | Print | Product List | Glossary On
Versions: 1 2 3 4 5 6 7 8 9 10 11 12 13 14 15 16 17 18 19
000
FTUS41 KPHI 300521
TAFACY
TAF
KACY 300521Z 3006/3106 20006KT P6SM BKN100
     FM301000 21012KT P6SM VCSH OVC060
     FM301500 24012G22KT P6SM BKN050
     FM301800 27015G25KT P6SM SCT050 BKN150
     FM302100 29015G25KT P6SM SCT050
     FM302300 29008KT P6SM FEW050=

USA.gov is the U.S. government's official web portal to all federal, state and local government web resources and services.